Time;durP1;ratioP1;P1;durP2;ratioP2;P2;SDS_P1;SDS_P2;PMS_P1;PMS_P2;Temp;Humidity;BMP_temperature;BMP_pressure;BME280_temperature;BME280_humidity;BME280_pressure;Samples;Min_cycle;Max_cycle;Signal;HPM_P1;HPM_P2
2022/11/06 00:14:43;;;;;;;9.85;3.90;;;22.00;77.10;;;;;;5093569;27;20753;-75
2022/11/06 00:17:10;;;;;;;15.32;5.22;;;22.10;75.50;;;;;;5081281;28;20747;-76
2022/11/06 00:19:36;;;;;;;4.53;2.85;;;22.10;75.10;;;;;;5083216;28;20478;-73
2022/11/06 00:22:03;;;;;;;14.25;3.50;;;22.10;74.80;;;;;;5085241;28;20029;-72
2022/11/06 00:24:30;;;;;;;8.68;2.80;;;22.10;75.30;;;;;;5084383;28;20028;-76
2022/11/06 00:26:56;;;;;;;5.07;2.20;;;22.10;75.90;;;;;;5087786;28;20032;-73
2022/11/06 00:29:23;;;;;;;7.13;1.75;;;22.10;75.90;;;;;;5087162;28;20481;-71
2022/11/06 00:31:50;;;;;;;9.57;2.13;;;22.10;75.20;;;;;;5082129;28;20028;-74
2022/11/06 00:34:16;;;;;;;6.35;2.03;;;22.10;74.80;;;;;;5083480;28;20108;-77
2022/11/06 00:36:43;;;;;;;4.20;2.10;;;22.10;74.60;;;;;;5085069;28;20012;-74
2022/11/06 00:39:10;;;;;;;3.72;1.77;;;22.10;74.40;;;;;;5088057;28;20021;-75
2022/11/06 00:41:37;;;;;;;7.43;2.05;;;22.10;74.30;;;;;;5084364;28;20016;-69
2022/11/06 00:44:04;;;;;;;5.38;1.90;;;22.10;74.20;;;;;;5082932;28;20029;-77
2022/11/06 00:46:30;;;;;;;10.25;2.33;;;22.10;74.20;;;;;;5082036;28;20054;-72
2022/11/06 00:48:57;;;;;;;10.80;2.53;;;22.10;74.20;;;;;;5084034;28;20104;-74
2022/11/06 00:51:30;;;;;;;11.35;2.42;;;22.10;74.40;;;;;;5082842;28;20020;-76
2022/11/06 00:53:59;;;;;;;8.68;1.90;;;22.10;74.80;;;;;;5083156;28;20089;-76
2022/11/06 00:56:26;;;;;;;21.45;3.25;;;22.10;74.70;;;;;;5085319;28;20054;-69
2022/11/06 00:58:54;;;;;;;7.05;2.20;;;22.00;74.50;;;;;;5077572;28;20019;-77
2022/11/06 01:01:23;;;;;;;8.32;2.45;;;22.00;74.90;;;;;;5083723;28;20461;-72
2022/11/06 01:03:58;;;;;;;8.00;2.58;;;22.00;75.20;;;;;;5079064;28;20043;-75
2022/11/06 01:06:28;;;;;;;4.80;2.28;;;22.00;75.30;;;;;;5084863;28;20021;-74
2022/11/06 01:08:55;;;;;;;11.98;2.08;;;22.00;75.40;;;;;;5081839;28;20033;-76
2022/11/06 01:11:24;;;;;;;5.97;1.70;;;22.00;75.50;;;;;;5085554;28;20088;-70
2022/11/06 01:13:54;;;;;;;7.72;2.95;;;22.00;75.70;;;;;;5075965;28;20388;-75
2022/11/06 01:16:22;;;;;;;8.13;2.92;;;22.00;75.70;;;;;;5068141;28;20031;-75
2022/11/06 01:18:49;;;;;;;9.32;1.90;;;22.00;75.70;;;;;;5064131;28;20021;-71
2022/11/06 01:21:25;;;;;;;7.25;1.50;;;21.90;75.60;;;;;;5067232;28;20052;-70
2022/11/06 01:23:57;;;;;;;10.68;1.80;;;21.90;75.80;;;;;;5062477;28;20518;-76
2022/11/06 01:26:24;;;;;;;8.45;2.97;;;22.00;75.90;;;;;;5067319;28;20028;-74
2022/11/06 01:28:51;;;;;;;5.68;3.05;;;21.90;75.90;;;;;;5069603;28;20027;-75
2022/11/06 01:31:21;;;;;;;23.88;3.03;;;21.90;76.70;;;;;;5071640;28;20402;-75
2022/11/06 01:33:48;;;;;;;11.43;3.60;;;21.90;77.10;;;;;;5064940;28;20506;-75
2022/11/06 01:36:17;;;;;;;9.30;2.55;;;21.90;77.10;;;;;;5068779;28;20016;-74
2022/11/06 01:38:46;;;;;;;10.73;2.97;;;22.00;76.70;;;;;;5068013;28;20031;-74
2022/11/06 01:41:36;;;;;;;11.02;2.25;;;21.90;76.20;;;;;;5067451;28;20029;-74
2022/11/06 01:44:35;;;;;;;6.88;2.63;;;21.90;76.10;;;;;;5067130;28;20025;-75
2022/11/06 01:47:03;;;;;;;8.30;2.08;;;21.90;76.30;;;;;;5045861;28;20043;-72
2022/11/06 01:49:37;;;;;;;3.50;1.83;;;21.90;76.40;;;;;;5065766;28;20021;-74
2022/11/06 01:52:09;;;;;;;6.68;3.00;;;21.90;76.00;;;;;;5068216;28;20417;-76
2022/11/06 01:54:39;;;;;;;7.82;2.00;;;21.80;75.70;;;;;;5071166;28;20051;-72
2022/11/06 01:57:06;;;;;;;6.70;2.10;;;21.80;75.50;;;;;;5068995;28;20012;-76
2022/11/06 01:59:38;;;;;;;8.25;2.00;;;21.80;75.50;;;;;;5066349;28;20107;-72
2022/11/06 02:02:04;;;;;;;5.78;1.73;;;21.80;75.50;;;;;;5069662;28;20443;-71
2022/11/06 02:04:47;;;;;;;6.93;2.13;;;21.80;75.40;;;;;;5062902;28;20091;-76
2022/11/06 02:07:15;;;;;;;15.00;3.53;;;21.70;75.40;;;;;;5066938;28;20394;-73
2022/11/06 02:09:42;;;;;;;9.65;1.98;;;21.70;75.70;;;;;;5067306;28;20020;-79
2022/11/06 02:12:48;;;;;;;6.20;2.15;;;21.70;76.20;;;;;;5069576;28;20474;-77
2022/11/06 02:15:39;;;;;;;8.10;3.05;;;21.70;76.30;;;;;;5068293;28;20071;-73
2022/11/06 02:18:25;;;;;;;7.22;2.58;;;21.70;76.40;;;;;;5068541;28;20490;-77
2022/11/06 02:21:10;;;;;;;9.05;1.88;;;21.70;77.10;;;;;;5067907;28;20034;-79
2022/11/06 02:24:19;;;;;;;7.68;2.30;;;21.70;76.50;;;;;;5068784;28;20412;-75
2022/11/06 02:26:52;;;;;;;8.80;4.10;;;21.70;76.70;;;;;;5046461;28;20189;-73
2022/11/06 02:29:23;;;;;;;13.73;2.78;;;21.60;76.70;;;;;;5069034;28;20046;-74
2022/11/06 02:31:55;;;;;;;11.20;3.75;;;21.60;77.10;;;;;;5066097;28;20025;-77
2022/11/06 02:34:25;;;;;;;5.10;2.35;;;21.60;77.00;;;;;;5063088;28;20529;-78
2022/11/06 02:36:59;;;;;;;4.40;1.52;;;21.60;77.00;;;;;;5065630;28;20025;-71
2022/11/06 02:39:28;;;;;;;7.22;2.20;;;21.60;77.00;;;;;;5070003;28;20017;-77
2022/11/06 02:41:57;;;;;;;3.92;1.48;;;21.60;77.10;;;;;;5066279;28;20033;-77
2022/11/06 02:44:27;;;;;;;4.00;1.92;;;21.60;77.00;;;;;;5067371;28;20043;-76
2022/11/06 02:47:05;;;;;;;18.13;3.47;;;21.60;77.10;;;;;;5066110;28;20491;-79
2022/11/06 02:49:49;;;;;;;7.97;2.33;;;21.50;76.90;;;;;;5068506;28;20074;-74
2022/11/06 02:52:34;;;;;;;15.30;2.35;;;21.50;77.00;;;;;;5066504;28;20017;-76
2022/11/06 02:55:27;;;;;;;4.25;2.10;;;21.50;77.20;;;;;;5061887;28;20129;-78
2022/11/06 02:58:00;;;;;;;6.53;2.03;;;21.50;77.20;;;;;;5069491;28;20024;-79
2022/11/06 03:00:27;;;;;;;6.20;2.05;;;21.50;77.20;;;;;;5069411;28;20024;-79
2022/11/06 03:03:04;;;;;;;6.18;1.70;;;21.50;77.30;;;;;;5067610;28;20506;-80
2022/11/06 03:05:33;;;;;;;6.95;2.03;;;21.50;77.30;;;;;;5067465;28;20028;-80
2022/11/06 03:08:23;;;;;;;7.30;2.05;;;21.50;77.20;;;;;;5061256;28;20031;-78
2022/11/06 03:11:02;;;;;;;8.98;2.78;;;21.50;77.20;;;;;;5062606;28;20035;-79
2022/11/06 03:13:42;;;;;;;6.50;2.28;;;21.40;77.20;;;;;;5067563;28;20075;-75
2022/11/06 03:16:30;;;;;;;16.50;5.25;;;21.40;77.20;;;;;;5066171;28;20352;-77
2022/11/06 03:19:13;;;;;;;18.55;11.60;;;21.40;77.60;;;;;;5068921;28;20055;-79
2022/11/06 03:22:00;;;;;;;12.18;6.93;;;21.40;77.80;;;;;;5065275;28;20027;-76
2022/11/06 03:24:53;;;;;;;9.82;3.88;;;21.40;77.30;;;;;;5065395;28;20032;-79
2022/11/06 03:27:31;;;;;;;5.88;3.03;;;21.40;77.10;;;;;;5056742;28;20032;-74
2022/11/06 03:30:07;;;;;;;10.57;2.97;;;21.40;76.80;;;;;;5063106;28;20023;-73
2022/11/06 03:33:17;;;;;;;8.32;2.67;;;21.30;76.70;;;;;;5068381;28;20028;-76
2022/11/06 03:35:50;;;;;;;10.68;2.72;;;21.30;76.60;;;;;;5030315;28;20549;-78
2022/11/06 03:38:29;;;;;;;7.53;2.22;;;21.30;76.60;;;;;;5067974;28;20016;-80
2022/11/06 03:41:07;;;;;;;7.00;2.28;;;21.30;76.70;;;;;;5066768;28;20025;-79
2022/11/06 03:43:41;;;;;;;7.78;2.88;;;21.30;76.70;;;;;;5063123;28;20066;-79
2022/11/06 03:46:13;;;;;;;12.10;2.15;;;21.30;76.70;;;;;;5065428;28;20483;-78
2022/11/06 03:49:02;;;;;;;15.25;6.75;;;21.30;76.70;;;;;;5063889;28;20032;-77
2022/11/06 03:52:11;;;;;;;19.05;8.20;;;21.20;77.20;;;;;;5063775;28;20043;-75
2022/11/06 03:55:01;;;;;;;17.48;5.97;;;21.20;78.10;;;;;;5063002;28;20475;-72
2022/11/06 03:57:34;;;;;;;17.25;5.85;;;21.20;77.50;;;;;;5066367;28;20103;-78
2022/11/06 04:00:04;;;;;;;29.40;14.73;;;21.20;77.70;;;;;;5066543;28;20031;-73
2022/11/06 04:02:35;;;;;;;23.40;14.43;;;21.20;78.50;;;;;;5067083;28;20024;-74
2022/11/06 04:05:20;;;;;;;13.43;7.85;;;21.20;78.10;;;;;;5068713;28;20489;-77
2022/11/06 04:16:11;;;;;;;11.10;4.40;;;21.20;77.20;;;;;;5067247;28;20035;-80
2022/11/06 04:18:37;;;;;;;14.52;9.23;;;21.20;77.30;;;;;;5065363;28;20025;-74
2022/11/06 04:21:42;;;;;;;9.90;7.47;;;21.20;77.30;;;;;;5068160;28;20013;-78
2022/11/06 04:27:32;;;;;;;5.30;3.08;;;21.20;77.30;;;;;;5064695;28;20035;-77
2022/11/06 04:30:12;;;;;;;5.22;2.88;;;21.20;77.30;;;;;;5067776;28;20055;-79
2022/11/06 04:32:54;;;;;;;4.65;2.10;;;21.20;77.30;;;;;;5065765;28;20036;-81
2022/11/06 04:35:24;;;;;;;9.95;2.63;;;21.20;77.40;;;;;;5064666;28;20028;-76
2022/11/06 04:38:14;;;;;;;13.60;2.72;;;21.20;77.30;;;;;;5066594;28;20035;-74
2022/11/06 04:40:53;;;;;;;4.32;1.88;;;21.10;78.40;;;;;;5065405;28;20349;-74
2022/11/06 04:43:36;;;;;;;5.38;2.15;;;21.10;78.50;;;;;;5065231;28;20036;-73
2022/11/06 04:46:05;;;;;;;8.57;3.47;;;21.10;78.30;;;;;;5066885;28;20012;-73
2022/11/06 04:48:32;;;;;;;7.05;2.40;;;21.10;78.30;;;;;;5066219;28;20085;-71
2022/11/06 04:51:04;;;;;;;16.90;6.35;;;21.20;78.30;;;;;;5070570;28;20031;-70
2022/11/06 04:53:32;;;;;;;21.35;6.55;;;21.20;78.80;;;;;;5067190;28;20502;-76
2022/11/06 04:56:11;;;;;;;12.55;5.18;;;21.20;79.20;;;;;;5069747;28;20025;-76
2022/11/06 04:58:38;;;;;;;9.07;4.13;;;21.20;79.00;;;;;;5068537;28;20487;-77
2022/11/06 05:01:05;;;;;;;5.38;2.45;;;21.20;78.90;;;;;;5070928;28;20016;-75
2022/11/06 05:03:31;;;;;;;5.03;2.83;;;21.20;78.80;;;;;;5070020;28;20059;-74
2022/11/06 05:05:58;;;;;;;6.50;1.95;;;21.20;78.70;;;;;;5068104;28;20040;-74
2022/11/06 05:08:24;;;;;;;8.05;2.08;;;21.20;78.70;;;;;;5069122;28;20032;-74
2022/11/06 05:10:51;;;;;;;4.15;1.70;;;21.20;78.60;;;;;;5069490;28;20029;-74
2022/11/06 05:13:18;;;;;;;5.53;1.60;;;21.20;78.70;;;;;;5070305;28;20465;-75
2022/11/06 05:15:44;;;;;;;4.78;1.98;;;21.20;78.60;;;;;;5069895;28;20780;-73
2022/11/06 05:18:11;;;;;;;6.93;1.73;;;21.20;78.60;;;;;;5065355;28;20169;-77
2022/11/06 05:20:37;;;;;;;4.68;1.80;;;21.20;78.60;;;;;;5069995;28;20024;-77
2022/11/06 05:23:04;;;;;;;2.78;1.85;;;21.30;78.60;;;;;;5068102;28;20036;-78
2022/11/06 05:25:34;;;;;;;8.32;2.10;;;21.30;78.70;;;;;;5066517;28;20379;-77
2022/11/06 05:28:05;;;;;;;11.05;4.70;;;21.30;78.60;;;;;;5066587;28;20043;-75
2022/11/06 05:30:32;;;;;;;13.13;7.57;;;21.40;78.80;;;;;;5070480;28;20023;-77
2022/11/06 05:32:59;;;;;;;17.55;9.07;;;21.40;79.20;;;;;;5069061;28;20028;-79
2022/11/06 05:35:25;;;;;;;7.70;5.72;;;21.40;79.20;;;;;;5067570;28;20032;-72
2022/11/06 05:38:01;;;;;;;8.48;5.60;;;21.40;79.10;;;;;;5071781;28;20547;-81
2022/11/06 05:40:28;;;;;;;9.15;3.67;;;21.40;79.50;;;;;;5069338;28;20101;-79
2022/11/06 05:42:55;;;;;;;8.48;2.72;;;21.50;79.10;;;;;;5068779;28;20403;-77
2022/11/06 05:45:21;;;;;;;5.57;2.47;;;21.50;79.10;;;;;;5068319;28;20021;-76
2022/11/06 05:47:48;;;;;;;4.97;2.10;;;21.50;79.00;;;;;;5065945;28;20475;-78
2022/11/06 05:50:14;;;;;;;6.53;3.33;;;21.50;78.80;;;;;;5068401;28;20029;-77
2022/11/06 05:52:41;;;;;;;4.10;1.90;;;21.60;78.70;;;;;;5070462;28;20012;-75
2022/11/06 05:55:08;;;;;;;2.72;2.20;;;21.60;78.50;;;;;;5067791;28;21501;-80
2022/11/06 05:57:34;;;;;;;6.57;1.67;;;21.60;78.40;;;;;;5070007;28;20052;-78
2022/11/06 06:00:01;;;;;;;5.80;1.65;;;21.60;78.20;;;;;;5068172;28;20036;-79
2022/11/06 06:02:27;;;;;;;3.17;2.00;;;21.70;78.10;;;;;;5069623;28;20121;-78
2022/11/06 06:04:54;;;;;;;2.95;1.60;;;21.70;78.00;;;;;;5067389;28;20115;-74
2022/11/06 06:07:20;;;;;;;5.28;2.08;;;21.80;77.90;;;;;;5068259;28;20024;-78
2022/11/06 06:09:47;;;;;;;3.28;1.38;;;21.80;77.70;;;;;;5066866;28;20025;-73
2022/11/06 06:12:14;;;;;;;3.42;1.30;;;21.80;77.50;;;;;;5066898;28;20100;-78
2022/11/06 06:14:41;;;;;;;1.63;1.10;;;21.90;77.50;;;;;;5068977;28;20644;-75
2022/11/06 06:17:07;;;;;;;4.47;1.73;;;21.90;77.30;;;;;;5068668;28;20063;-76
2022/11/06 06:19:34;;;;;;;3.65;1.95;;;21.90;77.20;;;;;;5066020;28;20103;-73
2022/11/06 06:22:00;;;;;;;6.93;2.15;;;21.90;77.00;;;;;;5066558;28;20051;-78
2022/11/06 06:24:27;;;;;;;13.70;4.03;;;22.00;77.00;;;;;;5068811;28;20017;-71
2022/11/06 06:26:53;;;;;;;20.25;5.95;;;22.00;77.00;;;;;;5069838;28;20025;-70
2022/11/06 06:29:20;;;;;;;11.15;4.38;;;22.00;77.30;;;;;;5068338;28;20047;-77
2022/11/06 06:31:48;;;;;;;9.40;5.82;;;22.10;77.20;;;;;;5066612;28;20059;-74
2022/11/06 06:34:15;;;;;;;12.77;4.40;;;22.10;77.10;;;;;;5066908;28;20020;-74
2022/11/06 06:36:42;;;;;;;5.35;2.83;;;22.20;77.00;;;;;;5067298;28;20027;-72
2022/11/06 06:39:09;;;;;;;4.57;2.65;;;22.20;76.70;;;;;;5068373;28;20467;-74
2022/11/06 06:41:35;;;;;;;5.53;2.50;;;22.20;76.40;;;;;;5067074;28;20043;-73
2022/11/06 06:44:02;;;;;;;3.40;2.25;;;22.20;76.10;;;;;;5069215;28;20033;-74
2022/11/06 06:46:28;;;;;;;4.55;2.00;;;22.30;75.80;;;;;;5066679;28;20028;-72
2022/11/06 06:48:55;;;;;;;6.13;1.60;;;22.30;75.60;;;;;;5069232;28;20016;-73
2022/11/06 06:51:21;;;;;;;3.15;1.45;;;22.40;75.40;;;;;;5067806;28;20025;-73
2022/11/06 06:53:48;;;;;;;8.07;1.70;;;22.40;75.30;;;;;;5065643;28;20028;-73
2022/11/06 06:56:14;;;;;;;5.75;2.15;;;22.40;75.10;;;;;;5066295;28;20024;-74
2022/11/06 06:58:41;;;;;;;3.70;1.30;;;22.50;74.90;;;;;;5067347;28;20036;-74
2022/11/06 07:01:09;;;;;;;3.70;1.50;;;22.50;74.80;;;;;;5066819;28;20032;-73
2022/11/06 07:03:37;;;;;;;12.95;6.05;;;22.60;74.80;;;;;;5066663;28;20029;-74
2022/11/06 07:06:04;;;;;;;27.63;19.27;;;22.60;74.60;;;;;;5067550;28;20019;-74
2022/11/06 07:08:31;;;;;;;20.25;15.32;;;22.60;74.40;;;;;;5067316;28;20759;-73
2022/11/06 07:11:07;;;;;;;10.27;7.93;;;22.60;74.30;;;;;;5066530;28;20052;-73
2022/11/06 07:13:35;;;;;;;9.23;5.43;;;22.70;74.30;;;;;;5065671;28;20040;-73
2022/11/06 07:16:10;;;;;;;5.20;3.55;;;22.80;74.30;;;;;;5057712;28;20094;-74
2022/11/06 07:18:38;;;;;;;10.95;7.63;;;22.80;74.00;;;;;;5068943;28;20032;-74
2022/11/06 07:21:07;;;;;;;12.95;5.22;;;22.90;73.90;;;;;;5066254;28;20036;-74
2022/11/06 07:23:37;;;;;;;10.95;5.13;;;22.90;73.90;;;;;;5062970;28;20029;-75
2022/11/06 07:26:05;;;;;;;4.85;2.85;;;23.00;73.70;;;;;;5061720;28;20028;-74
2022/11/06 07:28:32;;;;;;;6.30;2.63;;;23.00;73.70;;;;;;5062984;28;20102;-75
2022/11/06 07:31:00;;;;;;;5.95;2.20;;;23.10;73.70;;;;;;5062575;28;20016;-72
2022/11/06 07:33:27;;;;;;;3.17;1.92;;;23.10;73.40;;;;;;5062166;28;20025;-73
2022/11/06 07:35:53;;;;;;;15.20;2.60;;;23.10;73.20;;;;;;5063437;28;20027;-73
2022/11/06 07:38:20;;;;;;;7.28;2.33;;;23.20;73.20;;;;;;5063613;28;20379;-74
2022/11/06 07:40:46;;;;;;;5.00;1.63;;;23.30;73.40;;;;;;5064487;28;20291;-72
2022/11/06 07:43:13;;;;;;;5.97;2.17;;;23.30;74.00;;;;;;5065162;28;20040;-73
2022/11/06 07:45:40;;;;;;;6.15;2.70;;;23.40;73.30;;;;;;5065804;28;20376;-75
2022/11/06 07:48:06;;;;;;;6.28;2.05;;;23.40;73.10;;;;;;5067293;28;20601;-75
2022/11/06 07:50:33;;;;;;;7.10;2.00;;;23.50;73.10;;;;;;5065915;28;20020;-76
2022/11/06 07:53:03;;;;;;;5.30;2.58;;;23.60;72.90;;;;;;5064220;28;20021;-74
2022/11/06 07:55:29;;;;;;;7.10;2.20;;;23.60;72.60;;;;;;5062333;28;20028;-77
2022/11/06 07:57:58;;;;;;;2.95;1.80;;;23.70;72.40;;;;;;5066523;28;20028;-75
2022/11/06 08:01:07;;;;;;;4.00;3.38;;;23.70;72.00;;;;;;5064892;28;20012;-73
2022/11/06 08:04:13;;;;;;;7.20;2.03;;;23.80;71.70;;;;;;5065204;28;20040;-73
2022/11/06 08:06:59;;;;;;;;;;;23.90;71.50;;;;;;5067971;28;20021;-74
2022/11/06 08:10:05;;;;;;;6.55;2.63;;;24.00;71.40;;;;;;5058001;28;20050;-76
2022/11/06 08:13:11;;;;;;;5.70;2.30;;;24.10;71.40;;;;;;5065272;28;20024;-75
2022/11/06 08:15:57;;;;;;;;;;;24.20;71.10;;;;;;5066650;28;20051;-77
2022/11/06 08:19:03;;;;;;;15.40;3.13;;;24.20;70.70;;;;;;5066023;28;19948;-75
2022/11/06 08:21:49;;;;;;;;;;;24.30;70.50;;;;;;5066505;28;20535;-76
2022/11/06 08:24:55;;;;;;;4.82;2.10;;;24.40;70.10;;;;;;5066376;28;20321;-75
2022/11/06 08:27:41;;;;;;;;;;;24.50;69.80;;;;;;5070357;28;20414;-77
2022/11/06 08:30:47;;;;;;;8.23;4.05;;;24.60;69.10;;;;;;5065555;28;19908;-75
2022/11/06 08:33:53;;;;;;;4.03;2.25;;;24.60;68.60;;;;;;5064567;28;20024;-76
2022/11/06 08:36:39;;;;;;;;;;;24.70;68.00;;;;;;5059725;28;20090;-76
2022/11/06 08:39:45;;;;;;;7.20;2.83;;;24.70;67.60;;;;;;5100671;28;19916;-75
2022/11/06 08:42:31;;;;;;;;;;;24.90;67.30;;;;;;5066082;28;20078;-75
2022/11/06 08:45:37;;;;;;;4.65;2.10;;;24.90;67.10;;;;;;5065253;28;19962;-76
2022/11/06 08:48:23;;;;;;;;;;;25.00;66.50;;;;;;5064650;28;20035;-77
2022/11/06 08:51:29;;;;;;;4.72;1.80;;;25.10;66.50;;;;;;5064115;28;19919;-77
2022/11/06 08:54:15;;;;;;;;;;;25.20;66.10;;;;;;5063677;28;20062;-76
2022/11/06 08:57:21;;;;;;;6.65;2.72;;;25.20;65.70;;;;;;5069008;28;19908;-76
2022/11/06 09:00:07;;;;;;;;;;;25.30;65.40;;;;;;5061170;28;20332;-77
2022/11/06 09:03:18;;;;;;;7.93;3.03;;;25.40;65.40;;;;;;5066203;28;19922;-77
2022/11/06 09:06:25;;;;;;;9.10;2.92;;;25.50;64.90;;;;;;5065099;28;20420;-74
2022/11/06 09:09:11;;;;;;;9.00;3.50;;;25.50;64.90;;;;;;5062614;28;20044;-77
2022/11/06 09:11:37;;;;;;;8.98;3.17;;;25.60;65.00;;;;;;5069897;28;20129;-76
2022/11/06 09:14:04;;;;;;;10.43;3.45;;;25.70;64.80;;;;;;5101800;28;20445;-77
2022/11/06 09:16:31;;;;;;;5.82;2.90;;;25.70;64.60;;;;;;5066091;28;20025;-76
2022/11/06 09:18:57;;;;;;;6.72;2.83;;;25.80;64.60;;;;;;5068236;28;20379;-77
2022/11/06 09:21:24;;;;;;;4.97;3.08;;;25.90;64.10;;;;;;5068995;28;20455;-77
2022/11/06 09:23:51;;;;;;;4.40;2.95;;;25.90;64.00;;;;;;5070500;28;20029;-76
2022/11/06 09:26:17;;;;;;;6.55;2.80;;;25.90;63.80;;;;;;5068115;28;20483;-78
2022/11/06 09:28:45;;;;;;;4.80;2.90;;;26.00;63.60;;;;;;5068037;28;20398;-77
2022/11/06 09:31:11;;;;;;;8.10;2.92;;;26.10;63.30;;;;;;5066899;28;20475;-77
2022/11/06 09:33:38;;;;;;;14.95;3.70;;;26.20;63.00;;;;;;5066541;28;20020;-77
2022/11/06 09:36:05;;;;;;;5.65;2.88;;;26.30;62.70;;;;;;5068350;28;20033;-77
2022/11/06 09:38:32;;;;;;;7.22;3.22;;;26.30;62.30;;;;;;5066136;28;20024;-75
2022/11/06 09:41:01;;;;;;;4.65;3.05;;;26.40;62.20;;;;;;5066422;28;20411;-75
2022/11/06 09:43:49;;;;;;;4.55;2.33;;;26.50;62.00;;;;;;5064331;28;20068;-77
2022/11/06 09:46:29;;;;;;;6.63;2.97;;;26.50;61.70;;;;;;5067396;28;20031;-75
2022/11/06 09:48:59;;;;;;;6.68;3.20;;;26.50;60.80;;;;;;5062996;28;20029;-77
2022/11/06 09:51:39;;;;;;;4.25;2.22;;;26.60;60.60;;;;;;5068050;28;20013;-77
2022/11/06 09:54:05;;;;;;;6.32;2.90;;;26.70;60.40;;;;;;5070938;28;20032;-77
2022/11/06 09:56:36;;;;;;;3.38;2.13;;;26.80;60.10;;;;;;5068375;28;20021;-77
2022/11/06 09:59:08;;;;;;;6.22;1.98;;;26.80;59.80;;;;;;5067933;28;20056;-76
2022/11/06 10:01:45;;;;;;;5.72;1.88;;;26.90;59.00;;;;;;5071139;28;20540;-78
2022/11/06 10:04:36;;;;;;;2.78;1.42;;;27.00;59.00;;;;;;5066083;28;20036;-77
2022/11/06 10:07:03;;;;;;;4.90;1.67;;;27.00;58.50;;;;;;5066262;28;20425;-75
2022/11/06 10:09:29;;;;;;;11.15;2.15;;;27.00;57.60;;;;;;5067075;28;20013;-73
2022/11/06 10:11:56;;;;;;;8.30;4.82;;;27.10;57.80;;;;;;5067277;28;20025;-74
2022/11/06 10:14:34;;;;;;;4.57;2.72;;;27.10;57.60;;;;;;5070167;28;20560;-74
2022/11/06 10:17:08;;;;;;;7.25;1.90;;;27.10;57.10;;;;;;5068196;28;20032;-76
2022/11/06 10:19:44;;;;;;;9.65;1.92;;;27.20;56.90;;;;;;5065981;28;20509;-76
2022/11/06 10:22:31;;;;;;;4.65;1.60;;;27.30;56.10;;;;;;5064881;28;20327;-75
2022/11/06 10:25:05;;;;;;;4.72;3.17;;;27.30;55.50;;;;;;5063436;28;20028;-74
2022/11/06 10:27:44;;;;;;;8.25;1.65;;;27.30;54.90;;;;;;5065218;28;20353;-76
2022/11/06 10:30:17;;;;;;;4.40;1.38;;;27.30;54.10;;;;;;5060330;28;20029;-76
2022/11/06 10:33:02;;;;;;;30.15;22.80;;;27.30;53.90;;;;;;5067114;28;20020;-72
2022/11/06 10:36:01;;;;;;;4.70;2.88;;;27.40;54.10;;;;;;5065231;28;20020;-73
2022/11/06 10:38:32;;;;;;;1.95;1.17;;;27.40;53.00;;;;;;5065582;28;20174;-75
2022/11/06 10:41:00;;;;;;;5.07;1.98;;;27.50;52.60;;;;;;5063264;28;20021;-75
2022/11/06 10:44:06;;;;;;;7.72;1.55;;;27.50;52.50;;;;;;5060566;28;20087;-78
2022/11/06 10:46:43;;;;;;;2.78;0.80;;;27.50;52.40;;;;;;5054297;28;20041;-75
2022/11/06 10:49:39;;;;;;;1.23;0.80;;;27.60;52.20;;;;;;5064145;28;20023;-75
2022/11/06 10:52:38;;;;;;;2.10;1.23;;;27.60;52.00;;;;;;5064046;28;20100;-75
2022/11/06 10:55:31;;;;;;;3.33;1.63;;;27.70;51.90;;;;;;5068434;28;20127;-74
2022/11/06 10:58:13;;;;;;;3.08;1.20;;;27.70;51.20;;;;;;5065896;28;20032;-75
2022/11/06 11:00:39;;;;;;;1.95;1.08;;;27.70;50.50;;;;;;5064183;28;20442;-73
2022/11/06 11:03:27;;;;;;;2.88;1.10;;;27.70;50.60;;;;;;5064192;28;20538;-74
2022/11/06 11:05:54;;;;;;;2.55;1.55;;;27.80;50.40;;;;;;5065306;28;20045;-75
2022/11/06 11:08:47;;;;;;;2.20;0.90;;;27.80;50.60;;;;;;5063142;28;20021;-75
2022/11/06 11:11:14;;;;;;;5.40;1.00;;;27.80;50.60;;;;;;5060627;28;20564;-73
2022/11/06 11:13:42;;;;;;;9.48;6.28;;;27.90;50.50;;;;;;5063772;28;20603;-72
2022/11/06 11:16:27;;;;;;;4.90;2.50;;;27.90;50.60;;;;;;5063342;28;20471;-75
2022/11/06 11:18:53;;;;;;;2.35;1.52;;;27.90;50.50;;;;;;5065356;28;20580;-75
2022/11/06 11:21:29;;;;;;;3.50;1.55;;;28.00;50.50;;;;;;5064020;28;20821;-74
2022/11/06 11:24:08;;;;;;;2.95;1.50;;;28.00;50.50;;;;;;5064929;28;20499;-74
2022/11/06 11:27:06;;;;;;;2.95;1.85;;;28.00;50.40;;;;;;5064061;28;20028;-73
2022/11/06 11:29:46;;;;;;;4.05;1.23;;;28.10;49.60;;;;;;5048878;28;20483;-74
2022/11/06 11:32:19;;;;;;;2.47;1.15;;;28.10;49.10;;;;;;5061752;28;20108;-73
2022/11/06 11:34:53;;;;;;;2.22;1.25;;;28.10;48.40;;;;;;5066060;28;20024;-74
2022/11/06 11:37:25;;;;;;;3.63;1.20;;;28.10;48.10;;;;;;5065122;28;20483;-72
2022/11/06 11:39:51;;;;;;;1.13;0.95;;;28.20;47.90;;;;;;5065948;28;20029;-73
2022/11/06 11:42:31;;;;;;;2.42;1.45;;;28.20;47.80;;;;;;5065225;28;20475;-73
2022/11/06 11:45:15;;;;;;;11.20;3.92;;;28.20;47.60;;;;;;5061810;28;20064;-73
2022/11/06 11:47:45;;;;;;;5.13;1.60;;;28.20;47.60;;;;;;5064914;28;20036;-73
2022/11/06 11:50:27;;;;;;;1.15;0.95;;;28.20;47.20;;;;;;5063034;28;20025;-73
2022/11/06 11:53:10;;;;;;;2.75;1.00;;;28.30;47.40;;;;;;5061108;28;20107;-72
2022/11/06 11:55:45;;;;;;;2.90;0.80;;;28.30;47.00;;;;;;5065138;28;20021;-73
2022/11/06 11:58:32;;;;;;;3.28;0.95;;;28.30;46.50;;;;;;5061671;28;20055;-72
2022/11/06 12:01:03;;;;;;;2.40;0.95;;;28.30;46.60;;;;;;5065642;28;20017;-72
2022/11/06 12:03:43;;;;;;;1.95;0.82;;;28.30;46.40;;;;;;5064581;28;20453;-72
2022/11/06 12:06:15;;;;;;;4.15;0.80;;;28.30;46.30;;;;;;5060642;28;20502;-73
2022/11/06 12:08:50;;;;;;;2.63;1.08;;;28.30;46.60;;;;;;5065340;28;20021;-73
2022/11/06 12:11:27;;;;;;;1.13;0.80;;;28.40;46.30;;;;;;5090602;28;20379;-73
2022/11/06 12:14:17;;;;;;;2.42;1.10;;;28.50;46.20;;;;;;5061947;28;20080;-72
2022/11/06 12:16:47;;;;;;;1.70;1.02;;;28.60;46.30;;;;;;5064211;28;20021;-76
2022/11/06 12:19:14;;;;;;;1.38;1.00;;;28.70;46.20;;;;;;5064201;28;20035;-76
2022/11/06 12:21:43;;;;;;;3.90;2.45;;;28.70;46.00;;;;;;5065787;28;20020;-74
2022/11/06 12:24:30;;;;;;;1.80;0.93;;;28.80;45.60;;;;;;5059894;28;20043;-75
2022/11/06 12:27:18;;;;;;;4.25;0.90;;;28.80;45.70;;;;;;5062514;28;20025;-76
2022/11/06 12:29:50;;;;;;;5.45;3.20;;;28.90;45.70;;;;;;5062951;28;20024;-76
2022/11/06 12:32:38;;;;;;;4.38;3.30;;;28.90;45.50;;;;;;5064861;28;20033;-75
2022/11/06 12:35:30;;;;;;;3.60;2.90;;;29.00;45.50;;;;;;5064806;28;20745;-72
2022/11/06 12:38:34;;;;;;;3.15;2.10;;;29.00;45.10;;;;;;5065211;28;20021;-75
2022/11/06 12:41:21;;;;;;;15.60;1.85;;;29.10;45.30;;;;;;5063969;28;20431;-75
2022/11/06 12:43:50;;;;;;;1.33;1.23;;;29.10;45.30;;;;;;5063833;28;20037;-75
2022/11/06 12:46:39;;;;;;;1.45;1.10;;;29.10;45.30;;;;;;5064419;28;20403;-75
2022/11/06 12:49:34;;;;;;;2.30;1.20;;;29.20;45.00;;;;;;5064706;28;20017;-75
2022/11/06 12:52:16;;;;;;;2.50;0.77;;;29.20;45.30;;;;;;5065183;28;20414;-75
2022/11/06 12:55:22;;;;;;;3.38;2.13;;;29.20;45.20;;;;;;5065848;28;20352;-74
2022/11/06 12:57:52;;;;;;;0.95;0.85;;;29.20;45.20;;;;;;5052197;28;20391;-74
2022/11/06 13:00:21;;;;;;;1.23;0.85;;;29.30;45.30;;;;;;5067038;28;20025;-75
2022/11/06 13:02:56;;;;;;;1.67;0.93;;;29.30;45.20;;;;;;5064185;28;21083;-74
2022/11/06 13:05:44;;;;;;;1.13;1.00;;;29.30;45.40;;;;;;5067167;28;20023;-75
2022/11/06 13:08:25;;;;;;;1.83;0.50;;;29.30;45.40;;;;;;5067705;28;20060;-73
2022/11/06 13:11:06;;;;;;;3.33;0.80;;;29.30;45.60;;;;;;5067001;28;20012;-75
2022/11/06 13:13:51;;;;;;;1.90;1.17;;;29.40;45.80;;;;;;5071564;28;20048;-74
2022/11/06 13:16:17;;;;;;;;;;;29.40;46.00;;;;;;5070328;28;20494;-73
2022/11/06 13:18:53;;;;;;;1.80;1.35;;;29.40;46.00;;;;;;5070577;28;19909;-73
2022/11/06 13:21:22;;;;;;;2.08;0.90;;;29.40;45.80;;;;;;5101371;28;20036;-73
2022/11/06 13:23:58;;;;;;;0.77;0.70;;;29.40;45.80;;;;;;5069044;28;20377;-72
2022/11/06 13:26:53;;;;;;;2.22;0.98;;;29.40;46.00;;;;;;5070934;28;20025;-74
2022/11/06 13:29:23;;;;;;;3.30;1.55;;;29.40;45.90;;;;;;5064541;28;20033;-73
2022/11/06 13:31:58;;;;;;;10.93;1.38;;;29.30;46.10;;;;;;5065813;28;20024;-76
2022/11/06 13:35:04;;;;;;;2.30;0.90;;;29.30;46.20;;;;;;5066970;28;20446;-77
2022/11/06 13:38:10;;;;;;;2.63;0.88;;;29.30;46.40;;;;;;5069804;28;20364;-73
2022/11/06 13:41:16;;;;;;;2.22;0.88;;;29.30;46.30;;;;;;5067443;28;20043;-73
2022/11/06 13:44:03;;;;;;;3.35;1.08;;;29.20;46.20;;;;;;5069686;28;20040;-74
2022/11/06 13:47:02;;;;;;;33.55;30.15;;;29.10;46.40;;;;;;5066814;28;20106;-74
2022/11/06 13:49:45;;;;;;;21.55;12.82;;;29.10;46.80;;;;;;5054571;28;20045;-71
2022/11/06 13:52:14;;;;;;;5.50;4.03;;;29.00;46.90;;;;;;5069311;28;20139;-70
2022/11/06 13:55:02;;;;;;;4.63;2.17;;;29.00;46.60;;;;;;5067378;28;20017;-75
2022/11/06 13:57:54;;;;;;;2.10;1.23;;;28.90;46.70;;;;;;5070426;28;20035;-76
2022/11/06 14:00:21;;;;;;;0.93;0.77;;;29.00;46.90;;;;;;5068513;28;20046;-76